sensor_id;sensor_type;location;lat;lon;timestamp;temperature;humidity
11704;DHT22;5908;51.354;7.458;2023-03-21T00:02:20;11.10;99.90
11704;DHT22;5908;51.354;7.458;2023-03-21T00:04:48;11.10;99.90
11704;DHT22;5908;51.354;7.458;2023-03-21T00:07:16;11.10;99.90
11704;DHT22;5908;51.354;7.458;2023-03-21T00:09:43;11.10;99.90
11704;DHT22;5908;51.354;7.458;2023-03-21T00:12:10;11.00;99.90
11704;DHT22;5908;51.354;7.458;2023-03-21T00:14:37;11.00;99.90
11704;DHT22;5908;51.354;7.458;2023-03-21T00:17:04;11.00;99.90
11704;DHT22;5908;51.354;7.458;2023-03-21T00:19:30;11.00;99.90
11704;DHT22;5908;51.354;7.458;2023-03-21T00:21:57;11.00;99.90
11704;DHT22;5908;51.354;7.458;2023-03-21T00:24:28;11.10;99.90
11704;DHT22;5908;51.354;7.458;2023-03-21T00:26:55;11.10;99.90
11704;DHT22;5908;51.354;7.458;2023-03-21T00:29:21;11.10;99.90
11704;DHT22;5908;51.354;7.458;2023-03-21T00:31:48;11.10;99.90
11704;DHT22;5908;51.354;7.458;2023-03-21T00:34:15;11.10;99.90
11704;DHT22;5908;51.354;7.458;2023-03-21T00:36:42;11.10;99.90
11704;DHT22;5908;51.354;7.458;2023-03-21T00:39:09;11.10;99.90
11704;DHT22;5908;51.354;7.458;2023-03-21T00:41:37;11.10;99.90
11704;DHT22;5908;51.354;7.458;2023-03-21T00:44:04;11.10;99.90
11704;DHT22;5908;51.354;7.458;2023-03-21T00:46:31;11.10;99.90
11704;DHT22;5908;51.354;7.458;2023-03-21T00:49:00;11.10;99.90
11704;DHT22;5908;51.354;7.458;2023-03-21T00:51:27;11.10;99.90
11704;DHT22;5908;51.354;7.458;2023-03-21T00:53:54;11.10;99.90
11704;DHT22;5908;51.354;7.458;2023-03-21T00:56:22;11.10;99.90
11704;DHT22;5908;51.354;7.458;2023-03-21T00:58:50;11.10;99.90
11704;DHT22;5908;51.354;7.458;2023-03-21T01:01:17;11.10;99.90
11704;DHT22;5908;51.354;7.458;2023-03-21T01:03:44;11.10;99.90
11704;DHT22;5908;51.354;7.458;2023-03-21T01:06:12;11.10;99.90
11704;DHT22;5908;51.354;7.458;2023-03-21T01:08:44;11.10;99.90
11704;DHT22;5908;51.354;7.458;2023-03-21T01:11:12;11.10;99.90
11704;DHT22;5908;51.354;7.458;2023-03-21T01:13:40;11.10;99.90
11704;DHT22;5908;51.354;7.458;2023-03-21T01:16:09;11.10;99.90
11704;DHT22;5908;51.354;7.458;2023-03-21T01:18:37;11.10;99.90
11704;DHT22;5908;51.354;7.458;2023-03-21T01:21:07;11.10;99.90
11704;DHT22;5908;51.354;7.458;2023-03-21T01:23:35;11.10;99.90
11704;DHT22;5908;51.354;7.458;2023-03-21T01:26:01;11.10;99.90
11704;DHT22;5908;51.354;7.458;2023-03-21T01:28:28;11.10;99.90
11704;DHT22;5908;51.354;7.458;2023-03-21T01:30:56;11.10;99.90
11704;DHT22;5908;51.354;7.458;2023-03-21T01:33:24;11.10;99.90
11704;DHT22;5908;51.354;7.458;2023-03-21T01:35:51;11.10;99.90
11704;DHT22;5908;51.354;7.458;2023-03-21T01:38:18;11.10;99.90
11704;DHT22;5908;51.354;7.458;2023-03-21T01:40:46;11.10;99.90
11704;DHT22;5908;51.354;7.458;2023-03-21T01:43:23;11.10;99.90
11704;DHT22;5908;51.354;7.458;2023-03-21T01:46:20;11.10;99.90
11704;DHT22;5908;51.354;7.458;2023-03-21T01:48:52;11.10;99.90
11704;DHT22;5908;51.354;7.458;2023-03-21T01:51:20;11.10;99.90
11704;DHT22;5908;51.354;7.458;2023-03-21T01:53:47;11.10;99.90
11704;DHT22;5908;51.354;7.458;2023-03-21T01:56:18;11.10;99.90
11704;DHT22;5908;51.354;7.458;2023-03-21T01:58:48;11.10;99.90
11704;DHT22;5908;51.354;7.458;2023-03-21T02:01:16;11.10;99.90
11704;DHT22;5908;51.354;7.458;2023-03-21T02:03:48;11.10;99.90
11704;DHT22;5908;51.354;7.458;2023-03-21T02:06:23;11.10;99.90
11704;DHT22;5908;51.354;7.458;2023-03-21T02:08:56;11.10;99.90
11704;DHT22;5908;51.354;7.458;2023-03-21T02:11:24;11.00;99.90
11704;DHT22;5908;51.354;7.458;2023-03-21T02:13:51;10.90;99.90
11704;DHT22;5908;51.354;7.458;2023-03-21T02:16:27;10.90;99.90
11704;DHT22;5908;51.354;7.458;2023-03-21T02:19:00;10.90;99.90
11704;DHT22;5908;51.354;7.458;2023-03-21T02:21:59;10.80;99.90
11704;DHT22;5908;51.354;7.458;2023-03-21T02:24:51;10.80;99.90
11704;DHT22;5908;51.354;7.458;2023-03-21T02:27:21;10.70;99.90
11704;DHT22;5908;51.354;7.458;2023-03-21T02:30:08;10.60;99.90
11704;DHT22;5908;51.354;7.458;2023-03-21T02:32:51;10.70;99.90
11704;DHT22;5908;51.354;7.458;2023-03-21T02:35:33;10.70;99.90
11704;DHT22;5908;51.354;7.458;2023-03-21T02:38:06;10.70;99.90
11704;DHT22;5908;51.354;7.458;2023-03-21T02:40:38;10.80;99.90
11704;DHT22;5908;51.354;7.458;2023-03-21T02:43:12;10.80;99.90
11704;DHT22;5908;51.354;7.458;2023-03-21T02:45:45;10.80;99.90
11704;DHT22;5908;51.354;7.458;2023-03-21T02:48:15;10.90;99.90
11704;DHT22;5908;51.354;7.458;2023-03-21T02:50:45;10.90;99.90
11704;DHT22;5908;51.354;7.458;2023-03-21T02:53:18;10.90;99.90
11704;DHT22;5908;51.354;7.458;2023-03-21T02:55:46;10.90;99.90
11704;DHT22;5908;51.354;7.458;2023-03-21T02:58:16;10.90;99.90
11704;DHT22;5908;51.354;7.458;2023-03-21T03:00:45;11.00;99.90
11704;DHT22;5908;51.354;7.458;2023-03-21T03:03:13;10.90;99.90
11704;DHT22;5908;51.354;7.458;2023-03-21T03:05:44;10.90;99.90
11704;DHT22;5908;51.354;7.458;2023-03-21T03:08:26;11.00;99.90
11704;DHT22;5908;51.354;7.458;2023-03-21T03:11:07;11.00;99.90
11704;DHT22;5908;51.354;7.458;2023-03-21T03:13:51;11.00;99.90
11704;DHT22;5908;51.354;7.458;2023-03-21T03:16:28;10.90;99.90
11704;DHT22;5908;51.354;7.458;2023-03-21T03:19:03;10.90;99.90
11704;DHT22;5908;51.354;7.458;2023-03-21T03:21:36;10.90;99.90
11704;DHT22;5908;51.354;7.458;2023-03-21T03:24:10;11.00;99.90
11704;DHT22;5908;51.354;7.458;2023-03-21T03:26:40;10.90;99.90
11704;DHT22;5908;51.354;7.458;2023-03-21T03:29:12;10.90;99.90
11704;DHT22;5908;51.354;7.458;2023-03-21T03:31:44;10.90;99.90
11704;DHT22;5908;51.354;7.458;2023-03-21T03:34:15;10.90;99.90
11704;DHT22;5908;51.354;7.458;2023-03-21T03:36:47;11.00;99.90
11704;DHT22;5908;51.354;7.458;2023-03-21T03:39:26;10.90;99.90
11704;DHT22;5908;51.354;7.458;2023-03-21T03:41:59;10.80;99.90
11704;DHT22;5908;51.354;7.458;2023-03-21T03:44:27;10.90;99.90
11704;DHT22;5908;51.354;7.458;2023-03-21T03:46:58;10.90;99.90
11704;DHT22;5908;51.354;7.458;2023-03-21T03:49:29;10.90;99.90
11704;DHT22;5908;51.354;7.458;2023-03-21T03:52:00;10.70;99.90
11704;DHT22;5908;51.354;7.458;2023-03-21T03:54:31;10.60;99.90
11704;DHT22;5908;51.354;7.458;2023-03-21T03:57:00;10.50;99.90
11704;DHT22;5908;51.354;7.458;2023-03-21T03:59:27;10.50;99.90
11704;DHT22;5908;51.354;7.458;2023-03-21T04:01:54;10.50;99.90
11704;DHT22;5908;51.354;7.458;2023-03-21T04:04:21;10.50;99.90
11704;DHT22;5908;51.354;7.458;2023-03-21T04:06:53;10.40;99.90
11704;DHT22;5908;51.354;7.458;2023-03-21T04:09:19;10.40;99.90
11704;DHT22;5908;51.354;7.458;2023-03-21T04:11:48;10.40;99.90
11704;DHT22;5908;51.354;7.458;2023-03-21T04:14:15;10.40;99.90
11704;DHT22;5908;51.354;7.458;2023-03-21T04:16:42;10.40;99.90
11704;DHT22;5908;51.354;7.458;2023-03-21T04:19:09;10.40;99.90
11704;DHT22;5908;51.354;7.458;2023-03-21T04:21:35;10.50;99.90
11704;DHT22;5908;51.354;7.458;2023-03-21T04:24:02;10.50;99.90
11704;DHT22;5908;51.354;7.458;2023-03-21T04:26:30;10.50;99.90
11704;DHT22;5908;51.354;7.458;2023-03-21T04:28:59;10.50;99.90
11704;DHT22;5908;51.354;7.458;2023-03-21T04:31:26;10.50;99.90
11704;DHT22;5908;51.354;7.458;2023-03-21T04:33:55;10.50;99.90
11704;DHT22;5908;51.354;7.458;2023-03-21T04:36:26;10.60;99.90
11704;DHT22;5908;51.354;7.458;2023-03-21T04:38:55;10.50;99.90
11704;DHT22;5908;51.354;7.458;2023-03-21T04:41:25;10.50;99.90
11704;DHT22;5908;51.354;7.458;2023-03-21T04:43:52;10.50;99.90
11704;DHT22;5908;51.354;7.458;2023-03-21T04:46:20;10.50;99.90
11704;DHT22;5908;51.354;7.458;2023-03-21T04:48:47;10.50;99.90
11704;DHT22;5908;51.354;7.458;2023-03-21T04:51:14;10.50;99.90
11704;DHT22;5908;51.354;7.458;2023-03-21T04:53:41;10.50;99.90
11704;DHT22;5908;51.354;7.458;2023-03-21T04:56:10;10.50;99.90
11704;DHT22;5908;51.354;7.458;2023-03-21T04:58:37;10.50;99.90
11704;DHT22;5908;51.354;7.458;2023-03-21T05:01:05;10.60;99.90
11704;DHT22;5908;51.354;7.458;2023-03-21T05:03:33;10.60;99.90
11704;DHT22;5908;51.354;7.458;2023-03-21T05:06:04;10.60;99.90
11704;DHT22;5908;51.354;7.458;2023-03-21T05:08:33;10.60;99.90
11704;DHT22;5908;51.354;7.458;2023-03-21T05:11:00;10.60;99.90
11704;DHT22;5908;51.354;7.458;2023-03-21T05:13:27;10.60;99.90
11704;DHT22;5908;51.354;7.458;2023-03-21T05:15:54;10.60;99.90
11704;DHT22;5908;51.354;7.458;2023-03-21T05:18:21;10.60;99.90
11704;DHT22;5908;51.354;7.458;2023-03-21T05:20:51;10.60;99.90
11704;DHT22;5908;51.354;7.458;2023-03-21T05:23:20;10.70;99.90
11704;DHT22;5908;51.354;7.458;2023-03-21T05:25:47;10.70;99.90
11704;DHT22;5908;51.354;7.458;2023-03-21T05:28:14;10.70;99.90
11704;DHT22;5908;51.354;7.458;2023-03-21T05:30:42;10.70;99.90
11704;DHT22;5908;51.354;7.458;2023-03-21T05:33:09;10.70;99.90
11704;DHT22;5908;51.354;7.458;2023-03-21T05:35:36;10.80;99.90
11704;DHT22;5908;51.354;7.458;2023-03-21T05:38:04;10.80;99.90
11704;DHT22;5908;51.354;7.458;2023-03-21T05:40:31;10.90;99.90
11704;DHT22;5908;51.354;7.458;2023-03-21T05:42:58;10.90;99.90
11704;DHT22;5908;51.354;7.458;2023-03-21T05:45:25;11.00;99.90
11704;DHT22;5908;51.354;7.458;2023-03-21T05:47:52;11.00;99.90
11704;DHT22;5908;51.354;7.458;2023-03-21T05:50:19;11.00;99.90
11704;DHT22;5908;51.354;7.458;2023-03-21T05:52:46;11.00;99.90
11704;DHT22;5908;51.354;7.458;2023-03-21T05:55:14;11.10;99.90
11704;DHT22;5908;51.354;7.458;2023-03-21T05:57:41;11.10;99.90
11704;DHT22;5908;51.354;7.458;2023-03-21T06:00:08;11.10;99.90
11704;DHT22;5908;51.354;7.458;2023-03-21T06:02:36;11.10;99.90
11704;DHT22;5908;51.354;7.458;2023-03-21T06:05:04;11.10;99.90
11704;DHT22;5908;51.354;7.458;2023-03-21T06:07:32;11.20;99.90
11704;DHT22;5908;51.354;7.458;2023-03-21T06:10:00;11.20;99.90
11704;DHT22;5908;51.354;7.458;2023-03-21T06:12:28;11.30;99.90
11704;DHT22;5908;51.354;7.458;2023-03-21T06:14:55;11.40;99.90
11704;DHT22;5908;51.354;7.458;2023-03-21T06:17:22;11.50;99.90
11704;DHT22;5908;51.354;7.458;2023-03-21T06:19:48;11.50;99.90
11704;DHT22;5908;51.354;7.458;2023-03-21T06:22:15;11.60;99.90
11704;DHT22;5908;51.354;7.458;2023-03-21T06:24:42;11.70;99.90
11704;DHT22;5908;51.354;7.458;2023-03-21T06:27:09;11.80;99.90
11704;DHT22;5908;51.354;7.458;2023-03-21T06:29:37;11.80;99.90
11704;DHT22;5908;51.354;7.458;2023-03-21T06:32:04;11.80;99.90
11704;DHT22;5908;51.354;7.458;2023-03-21T06:34:32;11.80;99.90
11704;DHT22;5908;51.354;7.458;2023-03-21T06:36:58;11.80;99.90
11704;DHT22;5908;51.354;7.458;2023-03-21T06:39:25;11.90;99.90
11704;DHT22;5908;51.354;7.458;2023-03-21T06:41:52;11.90;99.90
11704;DHT22;5908;51.354;7.458;2023-03-21T06:44:19;11.90;99.90
11704;DHT22;5908;51.354;7.458;2023-03-21T06:46:47;12.00;99.90
11704;DHT22;5908;51.354;7.458;2023-03-21T06:49:14;12.10;99.90
11704;DHT22;5908;51.354;7.458;2023-03-21T06:51:41;12.10;99.90
11704;DHT22;5908;51.354;7.458;2023-03-21T06:54:08;12.10;99.90
11704;DHT22;5908;51.354;7.458;2023-03-21T06:56:35;12.10;99.90
11704;DHT22;5908;51.354;7.458;2023-03-21T06:59:03;12.10;99.90
11704;DHT22;5908;51.354;7.458;2023-03-21T07:01:30;12.10;99.90
11704;DHT22;5908;51.354;7.458;2023-03-21T07:03:58;12.10;99.90
11704;DHT22;5908;51.354;7.458;2023-03-21T07:06:25;12.10;99.90
11704;DHT22;5908;51.354;7.458;2023-03-21T07:08:52;12.10;99.90
11704;DHT22;5908;51.354;7.458;2023-03-21T07:11:19;12.10;99.90
11704;DHT22;5908;51.354;7.458;2023-03-21T07:13:47;12.00;99.90
11704;DHT22;5908;51.354;7.458;2023-03-21T07:16:14;11.90;99.90
11704;DHT22;5908;51.354;7.458;2023-03-21T07:18:42;11.90;99.90
11704;DHT22;5908;51.354;7.458;2023-03-21T07:21:11;11.90;99.90
11704;DHT22;5908;51.354;7.458;2023-03-21T07:23:38;11.90;99.90
11704;DHT22;5908;51.354;7.458;2023-03-21T07:26:05;11.90;99.90
11704;DHT22;5908;51.354;7.458;2023-03-21T07:28:32;11.90;99.90
11704;DHT22;5908;51.354;7.458;2023-03-21T07:31:01;11.90;99.90
11704;DHT22;5908;51.354;7.458;2023-03-21T07:33:29;11.80;99.90
11704;DHT22;5908;51.354;7.458;2023-03-21T07:35:56;11.70;99.90
11704;DHT22;5908;51.354;7.458;2023-03-21T07:38:25;11.80;99.90
11704;DHT22;5908;51.354;7.458;2023-03-21T07:40:52;11.80;99.90
11704;DHT22;5908;51.354;7.458;2023-03-21T07:43:19;11.80;99.90
11704;DHT22;5908;51.354;7.458;2023-03-21T07:45:46;11.70;99.90
11704;DHT22;5908;51.354;7.458;2023-03-21T07:48:13;11.80;99.90
11704;DHT22;5908;51.354;7.458;2023-03-21T07:50:42;11.80;99.90
11704;DHT22;5908;51.354;7.458;2023-03-21T07:53:08;11.90;99.90
11704;DHT22;5908;51.354;7.458;2023-03-21T07:55:36;11.90;99.90
11704;DHT22;5908;51.354;7.458;2023-03-21T07:58:03;12.00;99.90
11704;DHT22;5908;51.354;7.458;2023-03-21T08:00:31;12.10;99.90
11704;DHT22;5908;51.354;7.458;2023-03-21T08:02:58;12.30;99.90
11704;DHT22;5908;51.354;7.458;2023-03-21T08:05:27;12.40;99.90
11704;DHT22;5908;51.354;7.458;2023-03-21T08:07:54;12.50;99.90
11704;DHT22;5908;51.354;7.458;2023-03-21T08:10:21;12.60;99.90
11704;DHT22;5908;51.354;7.458;2023-03-21T08:12:49;12.70;99.90
11704;DHT22;5908;51.354;7.458;2023-03-21T08:15:17;12.80;99.90
11704;DHT22;5908;51.354;7.458;2023-03-21T08:17:44;13.00;99.90
11704;DHT22;5908;51.354;7.458;2023-03-21T08:20:13;12.90;99.90
11704;DHT22;5908;51.354;7.458;2023-03-21T08:22:41;12.80;99.90
11704;DHT22;5908;51.354;7.458;2023-03-21T08:25:10;12.70;99.90
11704;DHT22;5908;51.354;7.458;2023-03-21T08:27:38;12.70;99.90
11704;DHT22;5908;51.354;7.458;2023-03-21T08:30:08;12.60;99.90
11704;DHT22;5908;51.354;7.458;2023-03-21T08:32:36;12.60;99.90
11704;DHT22;5908;51.354;7.458;2023-03-21T08:35:04;12.60;99.90
11704;DHT22;5908;51.354;7.458;2023-03-21T08:37:34;12.60;99.90
11704;DHT22;5908;51.354;7.458;2023-03-21T08:40:01;12.60;99.90
11704;DHT22;5908;51.354;7.458;2023-03-21T08:42:31;12.80;99.90
11704;DHT22;5908;51.354;7.458;2023-03-21T08:44:58;12.90;99.90
11704;DHT22;5908;51.354;7.458;2023-03-21T08:47:26;13.00;99.90
11704;DHT22;5908;51.354;7.458;2023-03-21T08:49:53;13.00;99.90
11704;DHT22;5908;51.354;7.458;2023-03-21T08:52:20;13.10;99.90
11704;DHT22;5908;51.354;7.458;2023-03-21T08:54:47;13.10;99.90
11704;DHT22;5908;51.354;7.458;2023-03-21T08:57:13;13.20;99.90
11704;DHT22;5908;51.354;7.458;2023-03-21T08:59:40;13.30;99.90
11704;DHT22;5908;51.354;7.458;2023-03-21T09:02:09;13.30;99.90
11704;DHT22;5908;51.354;7.458;2023-03-21T09:04:37;13.20;99.90
11704;DHT22;5908;51.354;7.458;2023-03-21T09:07:05;13.30;99.90
11704;DHT22;5908;51.354;7.458;2023-03-21T09:09:32;13.30;99.90
11704;DHT22;5908;51.354;7.458;2023-03-21T09:11:59;13.30;99.90
11704;DHT22;5908;51.354;7.458;2023-03-21T09:14:26;13.20;99.90
11704;DHT22;5908;51.354;7.458;2023-03-21T09:16:52;13.20;99.90
11704;DHT22;5908;51.354;7.458;2023-03-21T09:19:19;13.10;99.90
11704;DHT22;5908;51.354;7.458;2023-03-21T09:21:48;13.20;99.90
11704;DHT22;5908;51.354;7.458;2023-03-21T09:24:15;13.20;99.90
11704;DHT22;5908;51.354;7.458;2023-03-21T09:26:42;13.20;99.90
11704;DHT22;5908;51.354;7.458;2023-03-21T09:29:09;13.20;99.90
11704;DHT22;5908;51.354;7.458;2023-03-21T09:31:36;13.30;99.90
11704;DHT22;5908;51.354;7.458;2023-03-21T09:34:04;13.30;99.90
11704;DHT22;5908;51.354;7.458;2023-03-21T09:36:31;13.40;99.90
11704;DHT22;5908;51.354;7.458;2023-03-21T09:39:02;13.40;99.90
11704;DHT22;5908;51.354;7.458;2023-03-21T09:41:41;13.40;99.90
11704;DHT22;5908;51.354;7.458;2023-03-21T09:44:24;13.50;99.90
11704;DHT22;5908;51.354;7.458;2023-03-21T09:46:57;13.50;99.90
11704;DHT22;5908;51.354;7.458;2023-03-21T09:49:30;13.50;99.90
11704;DHT22;5908;51.354;7.458;2023-03-21T09:52:00;13.60;99.90
11704;DHT22;5908;51.354;7.458;2023-03-21T09:54:35;13.70;99.90
11704;DHT22;5908;51.354;7.458;2023-03-21T09:57:10;13.70;99.90
11704;DHT22;5908;51.354;7.458;2023-03-21T09:59:44;13.80;99.90
11704;DHT22;5908;51.354;7.458;2023-03-21T10:02:20;13.80;99.90
11704;DHT22;5908;51.354;7.458;2023-03-21T10:04:56;13.90;99.90
11704;DHT22;5908;51.354;7.458;2023-03-21T10:07:24;13.90;99.90
11704;DHT22;5908;51.354;7.458;2023-03-21T10:09:54;14.00;99.90
11704;DHT22;5908;51.354;7.458;2023-03-21T10:12:23;14.00;99.90
11704;DHT22;5908;51.354;7.458;2023-03-21T10:14:56;13.90;99.90
11704;DHT22;5908;51.354;7.458;2023-03-21T10:17:27;13.90;99.90
11704;DHT22;5908;51.354;7.458;2023-03-21T10:20:00;13.90;99.90
11704;DHT22;5908;51.354;7.458;2023-03-21T10:22:35;13.90;99.90
11704;DHT22;5908;51.354;7.458;2023-03-21T10:25:05;13.90;99.90
11704;DHT22;5908;51.354;7.458;2023-03-21T10:27:32;14.00;99.90
11704;DHT22;5908;51.354;7.458;2023-03-21T10:30:01;14.10;99.90
11704;DHT22;5908;51.354;7.458;2023-03-21T10:32:30;14.00;99.90
11704;DHT22;5908;51.354;7.458;2023-03-21T10:34:57;14.00;99.90
11704;DHT22;5908;51.354;7.458;2023-03-21T10:37:25;14.10;99.90
11704;DHT22;5908;51.354;7.458;2023-03-21T10:39:53;14.00;99.90
11704;DHT22;5908;51.354;7.458;2023-03-21T10:42:24;14.00;99.90
11704;DHT22;5908;51.354;7.458;2023-03-21T10:44:52;14.00;99.90
11704;DHT22;5908;51.354;7.458;2023-03-21T10:47:23;14.10;99.90
11704;DHT22;5908;51.354;7.458;2023-03-21T10:49:50;14.20;99.90
11704;DHT22;5908;51.354;7.458;2023-03-21T10:52:21;14.20;99.90
11704;DHT22;5908;51.354;7.458;2023-03-21T10:54:49;14.30;99.90
11704;DHT22;5908;51.354;7.458;2023-03-21T10:57:19;14.50;99.90
11704;DHT22;5908;51.354;7.458;2023-03-21T10:59:52;14.50;99.90
11704;DHT22;5908;51.354;7.458;2023-03-21T11:02:24;14.70;99.90
11704;DHT22;5908;51.354;7.458;2023-03-21T11:04:51;15.00;99.90
11704;DHT22;5908;51.354;7.458;2023-03-21T11:07:18;15.20;99.90
11704;DHT22;5908;51.354;7.458;2023-03-21T11:09:48;15.20;99.90
11704;DHT22;5908;51.354;7.458;2023-03-21T11:12:16;15.30;99.90
11704;DHT22;5908;51.354;7.458;2023-03-21T11:14:45;15.20;99.90
11704;DHT22;5908;51.354;7.458;2023-03-21T11:17:27;15.10;99.90
11704;DHT22;5908;51.354;7.458;2023-03-21T11:19:57;15.10;99.90
11704;DHT22;5908;51.354;7.458;2023-03-21T11:22:27;15.20;99.90
11704;DHT22;5908;51.354;7.458;2023-03-21T11:24:58;15.40;99.90
11704;DHT22;5908;51.354;7.458;2023-03-21T11:27:26;15.60;99.90
11704;DHT22;5908;51.354;7.458;2023-03-21T11:29:55;15.80;99.90
11704;DHT22;5908;51.354;7.458;2023-03-21T11:32:25;15.90;99.90
11704;DHT22;5908;51.354;7.458;2023-03-21T11:34:56;16.00;99.90
11704;DHT22;5908;51.354;7.458;2023-03-21T11:37:26;16.10;99.90
11704;DHT22;5908;51.354;7.458;2023-03-21T11:40:06;16.10;99.90
11704;DHT22;5908;51.354;7.458;2023-03-21T11:42:41;16.30;99.90
11704;DHT22;5908;51.354;7.458;2023-03-21T11:45:13;16.50;99.90
11704;DHT22;5908;51.354;7.458;2023-03-21T11:47:42;16.60;99.90
11704;DHT22;5908;51.354;7.458;2023-03-21T11:50:17;16.70;99.90
11704;DHT22;5908;51.354;7.458;2023-03-21T11:52:55;16.80;99.90
11704;DHT22;5908;51.354;7.458;2023-03-21T11:55:34;16.70;99.90
11704;DHT22;5908;51.354;7.458;2023-03-21T11:58:12;16.60;99.90
11704;DHT22;5908;51.354;7.458;2023-03-21T12:00:48;16.50;99.90
11704;DHT22;5908;51.354;7.458;2023-03-21T12:03:31;16.30;99.90
11704;DHT22;5908;51.354;7.458;2023-03-21T12:06:10;16.10;99.90
11704;DHT22;5908;51.354;7.458;2023-03-21T12:08:44;16.10;99.90
11704;DHT22;5908;51.354;7.458;2023-03-21T12:11:20;16.10;99.90
11704;DHT22;5908;51.354;7.458;2023-03-21T12:14:01;16.10;99.90
11704;DHT22;5908;51.354;7.458;2023-03-21T12:16:43;16.00;99.90
11704;DHT22;5908;51.354;7.458;2023-03-21T12:22:13;16.50;99.90
11704;DHT22;5908;51.354;7.458;2023-03-21T12:24:46;16.70;99.90
11704;DHT22;5908;51.354;7.458;2023-03-21T12:27:21;16.70;99.90
11704;DHT22;5908;51.354;7.458;2023-03-21T12:29:59;16.80;99.90
11704;DHT22;5908;51.354;7.458;2023-03-21T12:32:49;16.80;99.90
11704;DHT22;5908;51.354;7.458;2023-03-21T12:35:30;16.50;99.90
11704;DHT22;5908;51.354;7.458;2023-03-21T12:38:05;16.30;99.90
11704;DHT22;5908;51.354;7.458;2023-03-21T12:40:50;16.40;99.90
11704;DHT22;5908;51.354;7.458;2023-03-21T12:43:30;16.30;99.90
11704;DHT22;5908;51.354;7.458;2023-03-21T12:46:01;16.20;99.90
11704;DHT22;5908;51.354;7.458;2023-03-21T12:48:35;16.10;99.90
11704;DHT22;5908;51.354;7.458;2023-03-21T12:51:10;16.10;99.90
11704;DHT22;5908;51.354;7.458;2023-03-21T12:53:44;16.10;99.90
11704;DHT22;5908;51.354;7.458;2023-03-21T12:56:18;16.10;99.90
11704;DHT22;5908;51.354;7.458;2023-03-21T12:58:49;16.00;99.90
11704;DHT22;5908;51.354;7.458;2023-03-21T13:01:18;16.10;99.90
11704;DHT22;5908;51.354;7.458;2023-03-21T13:03:50;16.00;99.90
11704;DHT22;5908;51.354;7.458;2023-03-21T13:06:23;15.90;99.90
11704;DHT22;5908;51.354;7.458;2023-03-21T13:08:55;15.80;99.90
11704;DHT22;5908;51.354;7.458;2023-03-21T13:11:28;15.60;99.90
11704;DHT22;5908;51.354;7.458;2023-03-21T13:14:00;15.60;99.90
11704;DHT22;5908;51.354;7.458;2023-03-21T13:16:32;15.60;99.90
11704;DHT22;5908;51.354;7.458;2023-03-21T13:19:09;15.50;99.90
11704;DHT22;5908;51.354;7.458;2023-03-21T13:21:42;15.60;99.90
11704;DHT22;5908;51.354;7.458;2023-03-21T13:24:27;15.80;99.90
11704;DHT22;5908;51.354;7.458;2023-03-21T13:27:06;15.60;99.90
11704;DHT22;5908;51.354;7.458;2023-03-21T13:29:44;15.70;99.90
11704;DHT22;5908;51.354;7.458;2023-03-21T13:32:19;15.80;99.90
11704;DHT22;5908;51.354;7.458;2023-03-21T13:34:54;15.90;99.90
11704;DHT22;5908;51.354;7.458;2023-03-21T13:37:25;16.00;99.90
11704;DHT22;5908;51.354;7.458;2023-03-21T13:40:00;16.00;99.90
11704;DHT22;5908;51.354;7.458;2023-03-21T13:42:31;16.00;99.90
11704;DHT22;5908;51.354;7.458;2023-03-21T13:45:00;15.90;99.90
11704;DHT22;5908;51.354;7.458;2023-03-21T13:47:34;16.00;99.90
11704;DHT22;5908;51.354;7.458;2023-03-21T13:50:23;16.00;99.90
11704;DHT22;5908;51.354;7.458;2023-03-21T13:53:22;16.10;99.90
11704;DHT22;5908;51.354;7.458;2023-03-21T13:56:20;16.10;99.90
11704;DHT22;5908;51.354;7.458;2023-03-21T13:58:53;16.10;99.90
11704;DHT22;5908;51.354;7.458;2023-03-21T14:01:30;16.10;99.90
11704;DHT22;5908;51.354;7.458;2023-03-21T14:03:59;16.10;99.90
11704;DHT22;5908;51.354;7.458;2023-03-21T14:06:36;16.10;99.90
11704;DHT22;5908;51.354;7.458;2023-03-21T14:09:05;16.00;99.90
11704;DHT22;5908;51.354;7.458;2023-03-21T14:11:33;15.80;99.90
11704;DHT22;5908;51.354;7.458;2023-03-21T14:14:01;15.60;99.90
11704;DHT22;5908;51.354;7.458;2023-03-21T14:16:30;15.50;99.90
11704;DHT22;5908;51.354;7.458;2023-03-21T14:19:00;15.60;99.90
11704;DHT22;5908;51.354;7.458;2023-03-21T14:21:30;15.50;99.90
11704;DHT22;5908;51.354;7.458;2023-03-21T14:23:58;15.50;99.90
11704;DHT22;5908;51.354;7.458;2023-03-21T14:26:30;15.60;99.90
11704;DHT22;5908;51.354;7.458;2023-03-21T14:29:01;15.70;99.90
11704;DHT22;5908;51.354;7.458;2023-03-21T14:31:28;15.80;99.90
11704;DHT22;5908;51.354;7.458;2023-03-21T14:33:57;15.80;99.90
11704;DHT22;5908;51.354;7.458;2023-03-21T14:36:26;15.70;99.90
11704;DHT22;5908;51.354;7.458;2023-03-21T14:38:57;15.80;99.90
11704;DHT22;5908;51.354;7.458;2023-03-21T14:41:31;15.90;99.90
11704;DHT22;5908;51.354;7.458;2023-03-21T14:44:13;15.90;99.90
11704;DHT22;5908;51.354;7.458;2023-03-21T14:46:40;15.90;99.90
11704;DHT22;5908;51.354;7.458;2023-03-21T14:49:12;15.80;99.90
11704;DHT22;5908;51.354;7.458;2023-03-21T14:51:40;15.90;99.90
11704;DHT22;5908;51.354;7.458;2023-03-21T14:54:11;15.80;99.90
11704;DHT22;5908;51.354;7.458;2023-03-21T14:56:41;15.60;99.90
11704;DHT22;5908;51.354;7.458;2023-03-21T14:59:11;15.50;99.90
11704;DHT22;5908;51.354;7.458;2023-03-21T15:01:40;15.50;99.90
11704;DHT22;5908;51.354;7.458;2023-03-21T15:04:07;15.80;99.90
11704;DHT22;5908;51.354;7.458;2023-03-21T15:06:50;15.70;99.90
11704;DHT22;5908;51.354;7.458;2023-03-21T15:09:20;15.60;99.90
11704;DHT22;5908;51.354;7.458;2023-03-21T15:11:51;15.60;99.90
11704;DHT22;5908;51.354;7.458;2023-03-21T15:14:21;15.60;99.90
11704;DHT22;5908;51.354;7.458;2023-03-21T15:16:50;15.40;99.90
11704;DHT22;5908;51.354;7.458;2023-03-21T15:19:23;15.40;99.90
11704;DHT22;5908;51.354;7.458;2023-03-21T15:21:55;15.40;99.90
11704;DHT22;5908;51.354;7.458;2023-03-21T15:24:26;15.40;99.90
11704;DHT22;5908;51.354;7.458;2023-03-21T15:26:58;15.40;99.90
11704;DHT22;5908;51.354;7.458;2023-03-21T15:29:25;15.50;99.90
11704;DHT22;5908;51.354;7.458;2023-03-21T15:31:52;15.50;99.90
11704;DHT22;5908;51.354;7.458;2023-03-21T15:34:21;15.50;99.90
11704;DHT22;5908;51.354;7.458;2023-03-21T15:36:54;15.60;99.90
11704;DHT22;5908;51.354;7.458;2023-03-21T15:39:21;15.60;99.90
11704;DHT22;5908;51.354;7.458;2023-03-21T15:42:01;15.60;99.90
11704;DHT22;5908;51.354;7.458;2023-03-21T15:44:28;15.60;99.90
11704;DHT22;5908;51.354;7.458;2023-03-21T15:46:56;15.70;99.90
11704;DHT22;5908;51.354;7.458;2023-03-21T15:49:27;15.60;99.90
11704;DHT22;5908;51.354;7.458;2023-03-21T15:51:58;15.50;99.90
11704;DHT22;5908;51.354;7.458;2023-03-21T15:54:29;15.50;99.90
11704;DHT22;5908;51.354;7.458;2023-03-21T15:56:59;15.40;99.90
11704;DHT22;5908;51.354;7.458;2023-03-21T15:59:32;15.50;99.90
11704;DHT22;5908;51.354;7.458;2023-03-21T16:02:00;15.60;99.90
11704;DHT22;5908;51.354;7.458;2023-03-21T16:04:27;15.50;99.90
11704;DHT22;5908;51.354;7.458;2023-03-21T16:07:00;15.50;99.90
11704;DHT22;5908;51.354;7.458;2023-03-21T16:09:37;15.40;99.90